This demonstration page uses our WeatherBlox Daily Observations layout. Learn more.

Left ArrowRight Arrow

Hourly Observations for September 25, 2016

Temp ( °F °C ) Dew Point ( °F °C ) Humidity (%) Winds ( mph kmh ) Pressure ( in mb ) Visibility ( mi km ) Precip ( " mm )
12:51 am 00:51 Clear 61 16.1 29 -1.7 30 30 NNW 7 11 29.91 1013 10 16.0934 0 0
1:51 am 01:51 Clear 60 15.6 29 -1.7 31 31 N 7 11 29.91 1013 10 16.0934 0 0
2:51 am 02:51 Clear with Light Rain 55 12.8 30 -1.1 38 38 Calm 29.93 1013 10 16.0934 0 0.0254
3:51 am 03:51 Clear 54 12.2 31 -0.6 42 42 SE 3 6 29.93 1014 10 16.0934 0 0.0254
4:51 am 04:51 undefined 54 12 N/A N/A undefined N/A 29.95 1014 N/A 0 0
5:51 am 05:51 Clear 52 11.1 32 0 47 47 Calm 29.97 1015 10 16.0934 0 0
6:51 am 06:51 Sunny 54 12.2 35 1.7 49 49 Calm 30 1016 10 16.0934 0 0
7:51 am 07:51 Sunny 67 19.4 34 1.1 30 30 Calm 30 1016 10 16.0934 0 0
8:51 am 08:51 Mostly Sunny 67 19.4 36 2.2 32 32 SW 3 6 30.01 1016 10 16.0934 0 0
9:51 am 09:51 Sunny 73 22.8 35 1.7 25 25 VRB 3 6 30 1016 10 16.0934 0 0
10:51 am 10:51 Sunny 79 26.1 35 1.7 20 20 VRB 5 7 29.98 1015 10 16.0934 0 0
11:51 am 11:51 Sunny 84 28.9 35 1.7 17 17 VRB 6 9 29.95 1014 10 16.0934 0 0
12:51 pm 12:51 Sunny 84 28.9 35 1.7 17 17 ESE 8 13 29.93 1014 10 16.0934 0 0
1:51 pm 13:51 Sunny 87 30.6 34 1.1 15 15 ESE 12 19 29.91 1013 10 16.0934 0 0
2:51 pm 14:51 Sunny 88 31.1 34 1.1 15 15 ESE 10 17 29.9 1013 10 16.0934 0 0
3:51 pm 15:51 Sunny 87 30.6 35 1.7 16 16 SE 8 13 29.89 1012 10 16.0934 0 0
4:51 pm 16:51 Mostly Sunny 88 31.1 35 1.7 15 15 E 8 13 29.89 1012 10 16.0934 0 0
5:51 pm 17:51 Mostly Sunny 84 28.9 34 1.1 17 17 SE 10 17 29.9 1013 10 16.0934 0 0
6:51 pm 18:51 Clear 79 26.1 35 1.7 20 20 SE 6 9 29.92 1013 10 16.0934 0 0
7:51 pm 19:51 Partly Cloudy 75 23.9 37 2.8 25 25 E 7 11 29.93 1014 10 16.0934 0 0
8:51 pm 20:51 Mostly Clear 74 23.3 37 2.8 26 26 E 7 11 29.96 1014 10 16.0934 0 0.0254
9:51 pm 21:51 Clear 76 24.4 42 5.6 30 30 E 10 17 29.99 1016 10 16.0934 0 0.0254
10:51 pm 22:51 Mostly Cloudy 76 24.4 46 7.8 35 35 ESE 12 19 30 1016 10 16.0934 0 0
11:51 pm 23:51 Cloudy 74 23.3 46 7.8 37 37 E 10 17 30.02 1017 10 16.0934 0 0

Powered by AerisWeather